West Shokan, NY

1:15 PM EDT on July 06, 2015 (GMT -0400)
Bag End | | Change Station
CLOSE
Current Station
Personal Weather Station
Location: Boiceville, NY
Elevation: 1096 ft
Nearby Weather Stations

Elev 1096 ft 42.00 °N, 74.25 °W | Updated 32 seconds ago

Partly Cloudy
Partly Cloudy
81.0 °F
Feels Like 85 °F
N
3.8
Wind Variable Wind from NNE
Gusts 7.6 mph

Today
High -- | Low -- °F
--% Chance of Precip.
Yesterday
High -- | Low -- °F
Precip. -- in
5:28 AM 8:35 PM
Waning Gibbous, 74% visible
Pressure 30.16 in
Visibility 10.0 miles
Clouds Mostly Cloudy 3600 ft
Mostly Cloudy 4400 ft
Overcast 5000 ft
Heat Index 85 °F
Dew Point 72 °F
Humidity 74%
Rainfall 0.00 in
Snow Depth Not available.
UV 3 out of 12
Pollen 5.10 out of 12
Air Quality Not available.
Flu Activity Not available.
METAR KMGJ 061654Z AUTO 33003KT 10SM BKN036 BKN044 OVC050 27/21 A3016 RMK AO2 SLP212 T02670206 TSNO

More Conditions Fewer Conditions

Pressure 30.16 in
Visibility 10.0 miles
Clouds Mostly Cloudy 3600 ft
Mostly Cloudy 4400 ft
Overcast 5000 ft
Heat Index 85 °F
Dew Point 72 °F
Humidity 74%
Rainfall 0.00 in
Snow Depth Not available.
UV 3 out of 12
Pollen 5.10 out of 12
Air Quality Not available.
Flu Activity Not available.
METAR KMGJ 061654Z AUTO 33003KT 10SM BKN036 BKN044 OVC050 27/21 A3016 RMK AO2 SLP212 T02670206 TSNO

More Conditions Fewer Conditions

10-Day Weather Forecast

×

Almanac

Astronomy

Jul. 06, 2015 Rise Set
Actual Time
Civil Twilight
Nautical Twilight
Astronomical Twilight
Moon
Length of Visible Light
Length of Day
Tomorrow will be .
, % of the Moon is Illuminated

Today's Extremes

State Highs State Lows

Community

WunderPhotos

Upload Photos

1,835,604 photos uploaded!

WunderBlogs® & News

Nearby

Air Quality

  Air Quality AQ Index Pollutant
Not available.

Snow Depth

Station Depth Elevation

Earthquake Activity

City Distance Mag. Time & Date
Minimum magnitude displayed is 2.5.

Coastal Water Temperatures

Place Temperature

Stations

Nearby Weather Stations

Station Location Temp. Windchill Dew Point Humidity Wind Precip. Elev Updated Type